sensor_id;sensor_type;location;lat;lon;timestamp;pressure;altitude;pressure_sealevel;temperature;humidity
20350;BME280;10332;50.208;18.988;2023-03-22T00:00:09;97928.84;;;9.56;95.36
20350;BME280;10332;50.208;18.988;2023-03-22T00:03:02;97932.91;;;9.47;95.56
20350;BME280;10332;50.208;18.988;2023-03-22T00:05:31;97933.84;;;9.46;95.32
20350;BME280;10332;50.208;18.988;2023-03-22T00:07:59;97930.59;;;9.43;95.47
20350;BME280;10332;50.208;18.988;2023-03-22T00:10:27;97933.72;;;9.35;96.19
20350;BME280;10332;50.208;18.988;2023-03-22T00:12:55;97932.88;;;9.34;96.50
20350;BME280;10332;50.208;18.988;2023-03-22T00:15:23;97930.06;;;9.37;96.42
20350;BME280;10332;50.208;18.988;2023-03-22T00:17:50;97931.31;;;9.32;96.63
20350;BME280;10332;50.208;18.988;2023-03-22T00:20:18;97935.06;;;9.28;97.32
20350;BME280;10332;50.208;18.988;2023-03-22T00:22:47;97933.69;;;9.22;97.93
20350;BME280;10332;50.208;18.988;2023-03-22T00:25:14;97934.13;;;9.29;97.81
20350;BME280;10332;50.208;18.988;2023-03-22T00:27:43;97925.66;;;9.25;98.03
20350;BME280;10332;50.208;18.988;2023-03-22T00:30:10;97921.03;;;9.16;98.85
20350;BME280;10332;50.208;18.988;2023-03-22T00:32:38;97922.63;;;9.19;98.36
20350;BME280;10332;50.208;18.988;2023-03-22T00:35:07;97914.94;;;9.17;98.71
20350;BME280;10332;50.208;18.988;2023-03-22T00:37:36;97910.31;;;9.08;99.08
20350;BME280;10332;50.208;18.988;2023-03-22T00:40:11;97908.91;;;8.90;100.00
20350;BME280;10332;50.208;18.988;2023-03-22T00:42:40;97911.44;;;9.04;99.53
20350;BME280;10332;50.208;18.988;2023-03-22T00:45:10;97908.69;;;8.93;99.48
20350;BME280;10332;50.208;18.988;2023-03-22T00:47:38;97897.63;;;8.89;99.83
20350;BME280;10332;50.208;18.988;2023-03-22T00:50:06;97897.00;;;8.86;99.90
20350;BME280;10332;50.208;18.988;2023-03-22T00:52:34;97889.56;;;8.79;100.00
20350;BME280;10332;50.208;18.988;2023-03-22T00:55:01;97884.59;;;8.76;100.00
20350;BME280;10332;50.208;18.988;2023-03-22T00:57:29;97890.00;;;8.73;100.00
20350;BME280;10332;50.208;18.988;2023-03-22T00:59:56;97889.16;;;8.73;100.00
20350;BME280;10332;50.208;18.988;2023-03-22T01:02:24;97897.25;;;8.68;100.00
20350;BME280;10332;50.208;18.988;2023-03-22T01:04:56;97898.91;;;8.69;100.00
20350;BME280;10332;50.208;18.988;2023-03-22T01:07:23;97898.72;;;8.72;100.00
20350;BME280;10332;50.208;18.988;2023-03-22T01:09:52;97897.31;;;8.81;100.00
20350;BME280;10332;50.208;18.988;2023-03-22T01:12:19;97887.41;;;8.86;100.00
20350;BME280;10332;50.208;18.988;2023-03-22T01:14:47;97887.31;;;8.88;100.00
20350;BME280;10332;50.208;18.988;2023-03-22T01:17:14;97884.72;;;8.88;100.00
20350;BME280;10332;50.208;18.988;2023-03-22T01:19:42;97880.75;;;8.82;100.00
20350;BME280;10332;50.208;18.988;2023-03-22T01:22:09;97881.59;;;8.82;100.00
20350;BME280;10332;50.208;18.988;2023-03-22T01:24:37;97875.44;;;8.84;100.00
20350;BME280;10332;50.208;18.988;2023-03-22T01:27:04;97871.19;;;8.82;99.70
20350;BME280;10332;50.208;18.988;2023-03-22T01:29:32;97870.84;;;8.74;99.92
20350;BME280;10332;50.208;18.988;2023-03-22T01:31:59;97871.66;;;8.75;99.92
20350;BME280;10332;50.208;18.988;2023-03-22T01:34:27;97863.97;;;8.73;99.66
20350;BME280;10332;50.208;18.988;2023-03-22T01:36:54;97857.09;;;8.72;99.45
20350;BME280;10332;50.208;18.988;2023-03-22T01:39:22;97863.22;;;8.71;99.45
20350;BME280;10332;50.208;18.988;2023-03-22T01:41:49;97863.72;;;8.64;99.39
20350;BME280;10332;50.208;18.988;2023-03-22T01:44:20;97858.53;;;8.64;99.43
20350;BME280;10332;50.208;18.988;2023-03-22T01:46:49;97865.56;;;8.62;99.20
20350;BME280;10332;50.208;18.988;2023-03-22T01:49:38;97867.53;;;8.58;99.02
20350;BME280;10332;50.208;18.988;2023-03-22T01:52:11;97867.81;;;8.53;99.20
20350;BME280;10332;50.208;18.988;2023-03-22T01:54:49;97861.16;;;8.49;99.06
20350;BME280;10332;50.208;18.988;2023-03-22T01:57:18;97863.66;;;8.51;98.79
20350;BME280;10332;50.208;18.988;2023-03-22T01:59:46;97855.94;;;8.49;98.82
20350;BME280;10332;50.208;18.988;2023-03-22T02:02:16;97850.13;;;8.46;98.92
20350;BME280;10332;50.208;18.988;2023-03-22T02:04:48;97848.53;;;8.43;99.67
20350;BME280;10332;50.208;18.988;2023-03-22T02:07:24;97847.41;;;8.47;99.34
20350;BME280;10332;50.208;18.988;2023-03-22T02:09:54;97842.69;;;8.40;99.29
20350;BME280;10332;50.208;18.988;2023-03-22T02:22:06;97833.78;;;8.30;99.19
20350;BME280;10332;50.208;18.988;2023-03-22T02:31:21;97826.56;;;8.06;99.41
20350;BME280;10332;50.208;18.988;2023-03-22T02:42:43;97809.50;;;7.88;99.51
20350;BME280;10332;50.208;18.988;2023-03-22T02:45:32;97811.38;;;7.86;99.63
20350;BME280;10332;50.208;18.988;2023-03-22T02:48:11;97813.03;;;7.87;99.93
20350;BME280;10332;50.208;18.988;2023-03-22T02:51:07;97816.31;;;7.76;100.00
20350;BME280;10332;50.208;18.988;2023-03-22T02:54:04;97811.22;;;7.75;100.00
20350;BME280;10332;50.208;18.988;2023-03-22T02:56:44;97803.53;;;7.73;100.00
20350;BME280;10332;50.208;18.988;2023-03-22T02:59:14;97800.81;;;7.75;100.00
20350;BME280;10332;50.208;18.988;2023-03-22T03:01:53;97799.31;;;7.71;100.00
20350;BME280;10332;50.208;18.988;2023-03-22T03:04:31;97789.50;;;7.76;100.00
20350;BME280;10332;50.208;18.988;2023-03-22T03:07:05;97799.31;;;7.71;100.00
20350;BME280;10332;50.208;18.988;2023-03-22T03:09:37;97808.03;;;7.69;100.00
20350;BME280;10332;50.208;18.988;2023-03-22T03:12:20;97808.03;;;7.69;100.00
20350;BME280;10332;50.208;18.988;2023-03-22T03:14:47;97806.19;;;7.72;100.00
20350;BME280;10332;50.208;18.988;2023-03-22T03:21:02;97813.34;;;7.68;100.00
20350;BME280;10332;50.208;18.988;2023-03-22T03:29:55;97822.53;;;7.74;100.00
20350;BME280;10332;50.208;18.988;2023-03-22T03:32:39;97817.25;;;7.75;100.00
20350;BME280;10332;50.208;18.988;2023-03-22T03:38:08;97828.47;;;7.76;100.00
20350;BME280;10332;50.208;18.988;2023-03-22T03:40:58;97834.03;;;7.84;100.00
20350;BME280;10332;50.208;18.988;2023-03-22T03:43:27;97832.53;;;7.94;100.00
20350;BME280;10332;50.208;18.988;2023-03-22T03:45:54;97826.78;;;8.03;100.00
20350;BME280;10332;50.208;18.988;2023-03-22T03:48:27;97832.13;;;8.14;100.00
20350;BME280;10332;50.208;18.988;2023-03-22T03:50:57;97832.84;;;8.16;100.00
20350;BME280;10332;50.208;18.988;2023-03-22T03:53:25;97841.00;;;8.24;100.00
20350;BME280;10332;50.208;18.988;2023-03-22T03:55:53;97837.41;;;8.27;100.00
20350;BME280;10332;50.208;18.988;2023-03-22T03:58:20;97829.63;;;8.27;100.00
20350;BME280;10332;50.208;18.988;2023-03-22T04:00:49;97822.34;;;8.32;100.00
20350;BME280;10332;50.208;18.988;2023-03-22T04:03:16;97831.19;;;8.30;100.00
20350;BME280;10332;50.208;18.988;2023-03-22T04:05:45;97824.84;;;8.34;100.00
20350;BME280;10332;50.208;18.988;2023-03-22T04:08:12;97826.16;;;8.26;99.55
20350;BME280;10332;50.208;18.988;2023-03-22T04:10:40;97822.34;;;8.32;99.45
20350;BME280;10332;50.208;18.988;2023-03-22T04:13:07;97817.13;;;8.32;98.93
20350;BME280;10332;50.208;18.988;2023-03-22T04:15:35;97827.38;;;8.35;98.82
20350;BME280;10332;50.208;18.988;2023-03-22T04:18:03;97821.69;;;8.43;98.71
20350;BME280;10332;50.208;18.988;2023-03-22T04:20:31;97826.41;;;8.50;98.79
20350;BME280;10332;50.208;18.988;2023-03-22T04:22:58;97828.91;;;8.52;98.33
20350;BME280;10332;50.208;18.988;2023-03-22T04:25:26;97832.16;;;8.56;97.64
20350;BME280;10332;50.208;18.988;2023-03-22T04:27:56;97826.00;;;8.57;97.77
20350;BME280;10332;50.208;18.988;2023-03-22T04:30:26;97830.03;;;8.48;97.46
20350;BME280;10332;50.208;18.988;2023-03-22T04:32:54;97828.72;;;8.55;97.54
20350;BME280;10332;50.208;18.988;2023-03-22T04:35:22;97824.25;;;8.57;97.31
20350;BME280;10332;50.208;18.988;2023-03-22T04:37:50;97828.50;;;8.58;96.97
20350;BME280;10332;50.208;18.988;2023-03-22T04:40:18;97829.56;;;8.56;96.90
20350;BME280;10332;50.208;18.988;2023-03-22T04:42:47;97827.13;;;8.52;96.67
20350;BME280;10332;50.208;18.988;2023-03-22T04:45:14;97824.34;;;8.56;96.76
20350;BME280;10332;50.208;18.988;2023-03-22T04:47:42;97824.97;;;8.59;96.66
20350;BME280;10332;50.208;18.988;2023-03-22T04:50:09;97826.94;;;8.56;96.53
20350;BME280;10332;50.208;18.988;2023-03-22T04:52:37;97823.50;;;8.55;96.44
20350;BME280;10332;50.208;18.988;2023-03-22T04:55:05;97830.06;;;8.61;96.01
20350;BME280;10332;50.208;18.988;2023-03-22T04:57:33;97823.84;;;8.63;95.98
20350;BME280;10332;50.208;18.988;2023-03-22T05:00:02;97832.91;;;8.70;95.79
20350;BME280;10332;50.208;18.988;2023-03-22T05:02:34;97831.97;;;8.71;95.57
20350;BME280;10332;50.208;18.988;2023-03-22T05:05:08;97830.25;;;8.72;95.48
20350;BME280;10332;50.208;18.988;2023-03-22T05:07:35;97830.97;;;8.74;94.68
20350;BME280;10332;50.208;18.988;2023-03-22T05:10:03;97827.44;;;8.75;94.99
20350;BME280;10332;50.208;18.988;2023-03-22T05:12:31;97821.50;;;8.73;94.93
20350;BME280;10332;50.208;18.988;2023-03-22T05:14:59;97825.88;;;8.85;94.67
20350;BME280;10332;50.208;18.988;2023-03-22T05:17:30;97825.00;;;8.99;94.30
20350;BME280;10332;50.208;18.988;2023-03-22T05:19:58;97822.47;;;8.97;93.68
20350;BME280;10332;50.208;18.988;2023-03-22T05:22:25;97832.59;;;9.02;93.37
20350;BME280;10332;50.208;18.988;2023-03-22T05:24:53;97831.78;;;9.14;93.03
20350;BME280;10332;50.208;18.988;2023-03-22T05:27:20;97837.31;;;9.22;93.10
20350;BME280;10332;50.208;18.988;2023-03-22T05:29:57;97837.63;;;9.30;93.01
20350;BME280;10332;50.208;18.988;2023-03-22T05:32:24;97832.31;;;9.32;92.63
20350;BME280;10332;50.208;18.988;2023-03-22T05:34:55;97827.00;;;9.46;92.45
20350;BME280;10332;50.208;18.988;2023-03-22T05:37:23;97829.81;;;9.30;91.38
20350;BME280;10332;50.208;18.988;2023-03-22T05:39:50;97826.81;;;9.36;91.36
20350;BME280;10332;50.208;18.988;2023-03-22T05:42:18;97823.75;;;9.43;91.10
20350;BME280;10332;50.208;18.988;2023-03-22T05:44:45;97830.03;;;9.53;90.94
20350;BME280;10332;50.208;18.988;2023-03-22T05:47:13;97836.72;;;9.44;90.24
20350;BME280;10332;50.208;18.988;2023-03-22T05:49:40;97829.09;;;9.54;89.72
20350;BME280;10332;50.208;18.988;2023-03-22T05:52:08;97830.75;;;9.42;89.63
20350;BME280;10332;50.208;18.988;2023-03-22T05:54:36;97837.00;;;9.39;89.60
20350;BME280;10332;50.208;18.988;2023-03-22T05:57:03;97840.47;;;9.53;89.54
20350;BME280;10332;50.208;18.988;2023-03-22T05:59:31;97844.84;;;9.65;89.77
20350;BME280;10332;50.208;18.988;2023-03-22T06:01:58;97839.81;;;9.75;89.46
20350;BME280;10332;50.208;18.988;2023-03-22T06:04:25;97841.69;;;9.98;89.08
20350;BME280;10332;50.208;18.988;2023-03-22T06:06:53;97844.78;;;10.16;88.90
20350;BME280;10332;50.208;18.988;2023-03-22T06:09:20;97848.81;;;10.33;88.53
20350;BME280;10332;50.208;18.988;2023-03-22T06:11:48;97846.84;;;10.36;87.90
20350;BME280;10332;50.208;18.988;2023-03-22T06:14:15;97851.28;;;10.47;87.76
20350;BME280;10332;50.208;18.988;2023-03-22T06:16:43;97849.94;;;10.41;86.57
20350;BME280;10332;50.208;18.988;2023-03-22T06:19:10;97849.94;;;10.41;85.99
20350;BME280;10332;50.208;18.988;2023-03-22T06:21:38;97855.38;;;10.38;85.64
20350;BME280;10332;50.208;18.988;2023-03-22T06:24:05;97857.94;;;10.27;85.68
20350;BME280;10332;50.208;18.988;2023-03-22T06:26:33;97848.19;;;10.29;86.05
20350;BME280;10332;50.208;18.988;2023-03-22T06:29:00;97849.75;;;10.32;86.17
20350;BME280;10332;50.208;18.988;2023-03-22T06:31:29;97846.31;;;10.31;86.42
20350;BME280;10332;50.208;18.988;2023-03-22T06:33:57;97848.72;;;10.34;86.36
20350;BME280;10332;50.208;18.988;2023-03-22T06:36:24;97848.38;;;10.39;85.40
20350;BME280;10332;50.208;18.988;2023-03-22T06:38:52;97842.06;;;10.54;85.43
20350;BME280;10332;50.208;18.988;2023-03-22T06:41:20;97845.72;;;10.75;84.98
20350;BME280;10332;50.208;18.988;2023-03-22T06:43:47;97838.13;;;10.96;84.60
20350;BME280;10332;50.208;18.988;2023-03-22T06:46:15;97844.59;;;11.15;83.19
20350;BME280;10332;50.208;18.988;2023-03-22T06:48:43;97844.94;;;11.21;81.72
20350;BME280;10332;50.208;18.988;2023-03-22T06:51:10;97843.81;;;11.36;80.88
20350;BME280;10332;50.208;18.988;2023-03-22T06:53:37;97844.06;;;11.56;81.49
20350;BME280;10332;50.208;18.988;2023-03-22T06:56:05;97857.25;;;11.43;80.25
20350;BME280;10332;50.208;18.988;2023-03-22T06:58:33;97852.97;;;11.42;80.04
20350;BME280;10332;50.208;18.988;2023-03-22T07:01:00;97847.00;;;11.40;80.30
20350;BME280;10332;50.208;18.988;2023-03-22T07:03:28;97847.88;;;11.52;80.53
20350;BME280;10332;50.208;18.988;2023-03-22T07:06:07;97850.56;;;11.39;80.11
20350;BME280;10332;50.208;18.988;2023-03-22T07:08:35;97844.31;;;11.42;80.33
20350;BME280;10332;50.208;18.988;2023-03-22T07:11:04;97851.59;;;11.60;80.46
20350;BME280;10332;50.208;18.988;2023-03-22T07:13:32;97857.53;;;11.62;79.82
20350;BME280;10332;50.208;18.988;2023-03-22T07:16:01;97855.06;;;11.83;79.29
20350;BME280;10332;50.208;18.988;2023-03-22T07:18:29;97853.78;;;11.89;78.48
20350;BME280;10332;50.208;18.988;2023-03-22T07:20:56;97861.13;;;12.17;78.40
20350;BME280;10332;50.208;18.988;2023-03-22T07:23:24;97867.06;;;12.42;77.86
20350;BME280;10332;50.208;18.988;2023-03-22T07:25:52;97876.09;;;12.38;77.41
20350;BME280;10332;50.208;18.988;2023-03-22T07:28:22;97863.38;;;12.33;77.27
20350;BME280;10332;50.208;18.988;2023-03-22T07:31:06;97861.72;;;12.32;78.03
20350;BME280;10332;50.208;18.988;2023-03-22T07:33:39;97860.16;;;12.41;78.36
20350;BME280;10332;50.208;18.988;2023-03-22T07:36:08;97857.97;;;12.68;78.31
20350;BME280;10332;50.208;18.988;2023-03-22T07:38:36;97860.63;;;12.89;77.27
20350;BME280;10332;50.208;18.988;2023-03-22T07:41:04;97855.47;;;13.31;75.83
20350;BME280;10332;50.208;18.988;2023-03-22T07:43:32;97854.81;;;13.59;73.92
20350;BME280;10332;50.208;18.988;2023-03-22T07:46:16;97859.34;;;14.09;72.28
20350;BME280;10332;50.208;18.988;2023-03-22T07:48:44;97855.13;;;14.77;71.10
20350;BME280;10332;50.208;18.988;2023-03-22T07:51:12;97860.38;;;15.64;69.53
20350;BME280;10332;50.208;18.988;2023-03-22T07:53:39;97857.13;;;16.54;65.15
20350;BME280;10332;50.208;18.988;2023-03-22T07:56:07;97856.81;;;17.20;62.08
20350;BME280;10332;50.208;18.988;2023-03-22T07:58:35;97851.94;;;18.03;59.24
20350;BME280;10332;50.208;18.988;2023-03-22T08:01:04;97851.22;;;18.19;58.31
20350;BME280;10332;50.208;18.988;2023-03-22T08:03:35;97842.75;;;17.81;58.18
20350;BME280;10332;50.208;18.988;2023-03-22T08:06:05;97842.97;;;17.44;58.53
20350;BME280;10332;50.208;18.988;2023-03-22T08:08:35;97843.34;;;17.49;58.86
20350;BME280;10332;50.208;18.988;2023-03-22T08:11:06;97847.91;;;17.65;58.62
20350;BME280;10332;50.208;18.988;2023-03-22T08:13:34;97845.94;;;17.67;59.04
20350;BME280;10332;50.208;18.988;2023-03-22T08:16:02;97844.53;;;17.73;58.09
20350;BME280;10332;50.208;18.988;2023-03-22T08:18:30;97850.97;;;18.04;56.96
20350;BME280;10332;50.208;18.988;2023-03-22T08:20:58;97854.59;;;17.77;55.21
20350;BME280;10332;50.208;18.988;2023-03-22T08:23:27;97847.66;;;17.76;56.19
20350;BME280;10332;50.208;18.988;2023-03-22T08:26:09;97855.22;;;18.31;56.10
20350;BME280;10332;50.208;18.988;2023-03-22T08:28:37;97849.69;;;18.59;55.08
20350;BME280;10332;50.208;18.988;2023-03-22T08:31:14;97858.56;;;18.33;53.77
20350;BME280;10332;50.208;18.988;2023-03-22T08:33:43;97849.38;;;18.20;54.00
20350;BME280;10332;50.208;18.988;2023-03-22T08:36:15;97849.25;;;17.95;55.15
20350;BME280;10332;50.208;18.988;2023-03-22T08:38:43;97855.09;;;17.55;55.87
20350;BME280;10332;50.208;18.988;2023-03-22T08:41:12;97850.78;;;16.92;57.17
20350;BME280;10332;50.208;18.988;2023-03-22T08:43:39;97855.28;;;16.37;59.32
20350;BME280;10332;50.208;18.988;2023-03-22T08:46:07;97853.84;;;16.42;58.91
20350;BME280;10332;50.208;18.988;2023-03-22T08:48:35;97848.25;;;16.28;59.20
20350;BME280;10332;50.208;18.988;2023-03-22T08:51:05;97852.41;;;15.93;60.77
20350;BME280;10332;50.208;18.988;2023-03-22T08:53:35;97841.97;;;15.64;62.50
20350;BME280;10332;50.208;18.988;2023-03-22T08:56:03;97842.06;;;15.82;62.51
20350;BME280;10332;50.208;18.988;2023-03-22T08:58:31;97845.38;;;15.84;62.49
20350;BME280;10332;50.208;18.988;2023-03-22T09:00:58;97841.19;;;15.91;63.07
20350;BME280;10332;50.208;18.988;2023-03-22T09:03:26;97842.22;;;15.51;64.22
20350;BME280;10332;50.208;18.988;2023-03-22T09:05:53;97831.56;;;15.63;64.02
20350;BME280;10332;50.208;18.988;2023-03-22T09:08:21;97833.22;;;15.73;64.14
20350;BME280;10332;50.208;18.988;2023-03-22T09:10:49;97827.63;;;15.86;64.11
20350;BME280;10332;50.208;18.988;2023-03-22T09:13:20;97824.59;;;16.08;63.34
20350;BME280;10332;50.208;18.988;2023-03-22T09:15:49;97818.66;;;16.34;62.74
20350;BME280;10332;50.208;18.988;2023-03-22T09:18:17;97823.81;;;16.98;61.23
20350;BME280;10332;50.208;18.988;2023-03-22T09:20:45;97819.13;;;17.54;59.68
20350;BME280;10332;50.208;18.988;2023-03-22T09:23:13;97831.84;;;18.10;58.15
20350;BME280;10332;50.208;18.988;2023-03-22T09:25:48;97830.34;;;18.58;56.22
20350;BME280;10332;50.208;18.988;2023-03-22T09:28:16;97825.59;;;18.20;54.65
20350;BME280;10332;50.208;18.988;2023-03-22T09:30:43;97825.34;;;19.06;53.69
20350;BME280;10332;50.208;18.988;2023-03-22T09:33:11;97828.97;;;19.21;52.42
20350;BME280;10332;50.208;18.988;2023-03-22T09:35:42;97828.63;;;19.73;49.85
20350;BME280;10332;50.208;18.988;2023-03-22T09:38:10;97814.41;;;20.21;49.88
20350;BME280;10332;50.208;18.988;2023-03-22T09:41:02;97821.22;;;20.24;48.61
20350;BME280;10332;50.208;18.988;2023-03-22T09:43:39;97816.56;;;20.57;48.47
20350;BME280;10332;50.208;18.988;2023-03-22T09:46:16;97820.16;;;20.95;47.33
20350;BME280;10332;50.208;18.988;2023-03-22T09:48:49;97814.19;;;22.06;45.45
20350;BME280;10332;50.208;18.988;2023-03-22T09:51:32;97825.63;;;22.36;45.15
20350;BME280;10332;50.208;18.988;2023-03-22T09:56:40;97806.81;;;22.37;43.81
20350;BME280;10332;50.208;18.988;2023-03-22T09:59:32;97814.25;;;22.78;43.18
20350;BME280;10332;50.208;18.988;2023-03-22T10:02:40;97795.28;;;24.56;40.40
20350;BME280;10332;50.208;18.988;2023-03-22T10:05:46;97804.31;;;26.34;37.98
20350;BME280;10332;50.208;18.988;2023-03-22T10:08:38;97797.91;;;30.08;32.39
20350;BME280;10332;50.208;18.988;2023-03-22T10:12:00;97800.53;;;28.36;33.00
20350;BME280;10332;50.208;18.988;2023-03-22T10:14:41;97808.94;;;27.59;33.60
20350;BME280;10332;50.208;18.988;2023-03-22T10:17:17;97807.53;;;26.62;35.32
20350;BME280;10332;50.208;18.988;2023-03-22T10:19:59;97797.78;;;26.16;35.79
20350;BME280;10332;50.208;18.988;2023-03-22T10:22:40;97790.34;;;26.25;35.90
20350;BME280;10332;50.208;18.988;2023-03-22T10:25:14;97791.91;;;26.52;34.55
20350;BME280;10332;50.208;18.988;2023-03-22T10:27:48;97788.81;;;29.08;30.43
20350;BME280;10332;50.208;18.988;2023-03-22T10:30:26;97801.66;;;29.72;29.46
20350;BME280;10332;50.208;18.988;2023-03-22T10:33:01;97795.34;;;29.01;30.30
20350;BME280;10332;50.208;18.988;2023-03-22T10:35:30;97784.50;;;29.07;30.75
20350;BME280;10332;50.208;18.988;2023-03-22T10:38:03;97793.72;;;27.78;31.88
20350;BME280;10332;50.208;18.988;2023-03-22T10:40:34;97801.84;;;26.39;33.40
20350;BME280;10332;50.208;18.988;2023-03-22T10:43:25;97793.19;;;24.51;36.61
20350;BME280;10332;50.208;18.988;2023-03-22T10:45:55;97799.97;;;23.22;39.15
20350;BME280;10332;50.208;18.988;2023-03-22T10:48:35;97797.13;;;23.51;38.70
20350;BME280;10332;50.208;18.988;2023-03-22T10:51:06;97787.44;;;27.41;33.17
20350;BME280;10332;50.208;18.988;2023-03-22T10:53:48;97793.97;;;25.06;35.92
20350;BME280;10332;50.208;18.988;2023-03-22T10:56:19;97791.06;;;24.33;37.28
20350;BME280;10332;50.208;18.988;2023-03-22T10:58:54;97786.47;;;23.02;39.50
20350;BME280;10332;50.208;18.988;2023-03-22T11:01:35;97788.81;;;22.90;40.40
20350;BME280;10332;50.208;18.988;2023-03-22T11:04:15;97772.56;;;23.07;40.07
20350;BME280;10332;50.208;18.988;2023-03-22T11:06:52;97771.81;;;22.91;40.75
20350;BME280;10332;50.208;18.988;2023-03-22T11:09:24;97763.28;;;23.80;39.30
20350;BME280;10332;50.208;18.988;2023-03-22T11:11:59;97764.16;;;23.87;38.28
20350;BME280;10332;50.208;18.988;2023-03-22T11:14:34;97767.50;;;24.44;36.72
20350;BME280;10332;50.208;18.988;2023-03-22T11:22:43;97763.59;;;34.05;24.45
20350;BME280;10332;50.208;18.988;2023-03-22T11:25:25;97762.84;;;32.98;24.89
20350;BME280;10332;50.208;18.988;2023-03-22T11:30:32;97759.31;;;40.75;18.89
20350;BME280;10332;50.208;18.988;2023-03-22T11:33:19;97746.09;;;46.37;15.66
20350;BME280;10332;50.208;18.988;2023-03-22T11:35:58;97764.81;;;48.27;13.50
20350;BME280;10332;50.208;18.988;2023-03-22T11:38:39;97741.50;;;48.28;12.74
20350;BME280;10332;50.208;18.988;2023-03-22T11:41:33;97736.69;;;50.07;11.80
20350;BME280;10332;50.208;18.988;2023-03-22T11:44:11;97738.88;;;49.71;11.89
20350;BME280;10332;50.208;18.988;2023-03-22T11:46:55;97730.25;;;50.59;11.23
20350;BME280;10332;50.208;18.988;2023-03-22T11:49:51;97739.00;;;52.72;10.35
20350;BME280;10332;50.208;18.988;2023-03-22T11:52:24;97720.91;;;53.49;10.19
20350;BME280;10332;50.208;18.988;2023-03-22T11:54:54;97712.47;;;54.28;9.58
20350;BME280;10332;50.208;18.988;2023-03-22T11:57:29;97715.22;;;53.03;9.82
20350;BME280;10332;50.208;18.988;2023-03-22T12:00:16;97713.34;;;53.85;9.51
20350;BME280;10332;50.208;18.988;2023-03-22T12:03:06;97717.75;;;53.76;9.33
20350;BME280;10332;50.208;18.988;2023-03-22T12:05:42;97705.50;;;51.51;10.44
20350;BME280;10332;50.208;18.988;2023-03-22T12:08:44;97690.25;;;52.44;9.58
20350;BME280;10332;50.208;18.988;2023-03-22T12:11:33;97707.06;;;52.59;9.50
20350;BME280;10332;50.208;18.988;2023-03-22T12:14:24;97703.06;;;52.49;9.35
20350;BME280;10332;50.208;18.988;2023-03-22T12:17:03;97688.03;;;52.79;9.54
20350;BME280;10332;50.208;18.988;2023-03-22T12:19:55;97693.84;;;51.83;9.50
20350;BME280;10332;50.208;18.988;2023-03-22T12:22:36;97690.81;;;52.79;9.55
20350;BME280;10332;50.208;18.988;2023-03-22T12:25:16;97681.50;;;52.46;9.64
20350;BME280;10332;50.208;18.988;2023-03-22T12:27:53;97674.47;;;51.12;9.93
20350;BME280;10332;50.208;18.988;2023-03-22T12:30:29;97681.88;;;49.58;10.64
20350;BME280;10332;50.208;18.988;2023-03-22T12:33:09;97675.25;;;50.75;10.42
20350;BME280;10332;50.208;18.988;2023-03-22T12:35:43;97662.25;;;44.98;12.77
20350;BME280;10332;50.208;18.988;2023-03-22T12:38:47;97660.34;;;46.46;12.45
20350;BME280;10332;50.208;18.988;2023-03-22T12:41:38;97667.44;;;46.59;11.96
20350;BME280;10332;50.208;18.988;2023-03-22T12:44:17;97649.94;;;45.41;13.14
20350;BME280;10332;50.208;18.988;2023-03-22T12:46:54;97654.13;;;44.39;13.59
20350;BME280;10332;50.208;18.988;2023-03-22T12:49:39;97646.94;;;43.76;13.60
20350;BME280;10332;50.208;18.988;2023-03-22T12:52:20;97641.03;;;45.23;13.33
20350;BME280;10332;50.208;18.988;2023-03-22T12:54:53;97635.09;;;45.34;13.20
20350;BME280;10332;50.208;18.988;2023-03-22T12:57:22;97635.81;;;46.84;12.10
20350;BME280;10332;50.208;18.988;2023-03-22T12:59:52;97639.03;;;48.51;11.18
20350;BME280;10332;50.208;18.988;2023-03-22T13:02:32;97637.09;;;49.86;10.68
20350;BME280;10332;50.208;18.988;2023-03-22T13:05:05;97640.16;;;50.64;10.37
20350;BME280;10332;50.208;18.988;2023-03-22T13:10:45;97638.25;;;52.08;9.89
20350;BME280;10332;50.208;18.988;2023-03-22T13:18:54;97647.84;;;53.15;9.39
20350;BME280;10332;50.208;18.988;2023-03-22T13:21:29;97636.59;;;51.96;9.25
20350;BME280;10332;50.208;18.988;2023-03-22T13:26:43;97632.47;;;38.54;16.22
20350;BME280;10332;50.208;18.988;2023-03-22T13:29:35;97613.00;;;38.04;17.02
20350;BME280;10332;50.208;18.988;2023-03-22T13:32:29;97605.13;;;43.15;13.67
20350;BME280;10332;50.208;18.988;2023-03-22T13:34:58;97600.38;;;45.81;12.58
20350;BME280;10332;50.208;18.988;2023-03-22T13:40:33;97603.78;;;46.43;11.64
20350;BME280;10332;50.208;18.988;2023-03-22T13:43:48;97590.81;;;44.72;12.84
20350;BME280;10332;50.208;18.988;2023-03-22T14:04:49;97582.47;;;45.39;12.23
20350;BME280;10332;50.208;18.988;2023-03-22T14:10:17;97590.47;;;45.19;12.44
20350;BME280;10332;50.208;18.988;2023-03-22T14:13:22;97571.75;;;44.13;12.41
20350;BME280;10332;50.208;18.988;2023-03-22T14:16:01;97563.63;;;44.50;12.62
20350;BME280;10332;50.208;18.988;2023-03-22T14:18:32;97558.78;;;44.80;12.59
20350;BME280;10332;50.208;18.988;2023-03-22T14:21:32;97561.19;;;44.69;12.74
20350;BME280;10332;50.208;18.988;2023-03-22T14:24:02;97554.97;;;44.60;12.58
20350;BME280;10332;50.208;18.988;2023-03-22T14:26:43;97559.25;;;42.98;13.29
20350;BME280;10332;50.208;18.988;2023-03-22T14:29:17;97562.22;;;41.72;13.96
20350;BME280;10332;50.208;18.988;2023-03-22T14:31:53;97559.59;;;40.56;14.94
20350;BME280;10332;50.208;18.988;2023-03-22T14:34:22;97558.13;;;38.30;16.28
20350;BME280;10332;50.208;18.988;2023-03-22T14:36:56;97555.34;;;38.49;16.64
20350;BME280;10332;50.208;18.988;2023-03-22T14:39:33;97560.50;;;37.75;17.24
20350;BME280;10332;50.208;18.988;2023-03-22T14:44:54;97535.88;;;35.22;18.80
20350;BME280;10332;50.208;18.988;2023-03-22T14:47:26;97537.75;;;35.27;18.98
20350;BME280;10332;50.208;18.988;2023-03-22T14:49:57;97545.19;;;34.81;19.36